sensor_id;sensor_type;location;lat;lon;timestamp;pressure;altitude;pressure_sealevel;temperature;humidity
14067;BME280;7108;42.684;23.350;2023-04-28T00:02:01;95564.47;;;8.22;93.10
14067;BME280;7108;42.684;23.350;2023-04-28T00:04:27;95553.00;;;8.01;90.56
14067;BME280;7108;42.684;23.350;2023-04-28T00:06:53;95559.50;;;8.00;91.22
14067;BME280;7108;42.684;23.350;2023-04-28T00:09:18;95564.88;;;8.00;92.77
14067;BME280;7108;42.684;23.350;2023-04-28T00:11:44;95570.88;;;7.97;94.21
14067;BME280;7108;42.684;23.350;2023-04-28T00:14:11;95553.97;;;7.85;92.25
14067;BME280;7108;42.684;23.350;2023-04-28T00:16:36;95565.94;;;7.87;93.51
14067;BME280;7108;42.684;23.350;2023-04-28T00:19:02;95567.50;;;7.88;93.20
14067;BME280;7108;42.684;23.350;2023-04-28T00:21:27;95559.00;;;7.86;94.89
14067;BME280;7108;42.684;23.350;2023-04-28T00:23:53;95563.72;;;7.89;94.58
14067;BME280;7108;42.684;23.350;2023-04-28T00:26:18;95558.06;;;7.71;94.78
14067;BME280;7108;42.684;23.350;2023-04-28T00:28:44;95570.16;;;7.77;95.77
14067;BME280;7108;42.684;23.350;2023-04-28T00:31:10;95562.31;;;7.72;95.23
14067;BME280;7108;42.684;23.350;2023-04-28T00:33:40;95566.50;;;7.81;96.38
14067;BME280;7108;42.684;23.350;2023-04-28T00:36:06;95567.94;;;7.79;95.14
14067;BME280;7108;42.684;23.350;2023-04-28T00:38:31;95576.97;;;7.74;95.05
14067;BME280;7108;42.684;23.350;2023-04-28T00:40:57;95569.13;;;7.69;95.75
14067;BME280;7108;42.684;23.350;2023-04-28T00:43:22;95584.94;;;7.82;95.72
14067;BME280;7108;42.684;23.350;2023-04-28T00:45:48;95578.91;;;7.85;96.63
14067;BME280;7108;42.684;23.350;2023-04-28T00:48:14;95573.50;;;7.74;95.96
14067;BME280;7108;42.684;23.350;2023-04-28T00:50:41;95570.78;;;7.62;97.04
14067;BME280;7108;42.684;23.350;2023-04-28T00:53:07;95578.50;;;7.63;97.69
14067;BME280;7108;42.684;23.350;2023-04-28T00:55:34;95586.53;;;7.63;98.08
14067;BME280;7108;42.684;23.350;2023-04-28T00:58:01;95575.78;;;7.51;98.33
14067;BME280;7108;42.684;23.350;2023-04-28T01:00:26;95580.34;;;7.51;98.73
14067;BME280;7108;42.684;23.350;2023-04-28T01:02:53;95583.41;;;7.61;99.79
14067;BME280;7108;42.684;23.350;2023-04-28T01:05:19;95584.94;;;7.50;98.95
14067;BME280;7108;42.684;23.350;2023-04-28T01:07:45;95589.50;;;7.50;99.77
14067;BME280;7108;42.684;23.350;2023-04-28T01:10:10;95586.94;;;7.53;100.00
14067;BME280;7108;42.684;23.350;2023-04-28T01:12:36;95588.06;;;7.52;99.63
14067;BME280;7108;42.684;23.350;2023-04-28T01:15:01;95582.78;;;7.44;100.00
14067;BME280;7108;42.684;23.350;2023-04-28T01:17:29;95588.03;;;7.40;100.00
14067;BME280;7108;42.684;23.350;2023-04-28T01:19:55;95591.28;;;7.46;100.00
14067;BME280;7108;42.684;23.350;2023-04-28T01:22:21;95598.00;;;7.52;100.00
14067;BME280;7108;42.684;23.350;2023-04-28T01:24:46;95594.75;;;7.46;99.97
14067;BME280;7108;42.684;23.350;2023-04-28T01:27:11;95603.31;;;7.40;99.76
14067;BME280;7108;42.684;23.350;2023-04-28T01:29:37;95594.75;;;7.46;100.00
14067;BME280;7108;42.684;23.350;2023-04-28T01:32:02;95593.81;;;7.42;100.00
14067;BME280;7108;42.684;23.350;2023-04-28T01:34:28;95595.94;;;7.37;100.00
14067;BME280;7108;42.684;23.350;2023-04-28T01:36:53;95602.53;;;7.39;100.00
14067;BME280;7108;42.684;23.350;2023-04-28T01:39:19;95595.53;;;7.47;100.00
14067;BME280;7108;42.684;23.350;2023-04-28T01:41:44;95585.84;;;7.34;98.92
14067;BME280;7108;42.684;23.350;2023-04-28T01:44:10;95602.66;;;7.43;99.10
14067;BME280;7108;42.684;23.350;2023-04-28T01:46:37;95596.91;;;7.32;98.41
14067;BME280;7108;42.684;23.350;2023-04-28T01:49:02;95589.31;;;7.34;99.07
14067;BME280;7108;42.684;23.350;2023-04-28T01:51:28;95603.25;;;7.28;100.00
14067;BME280;7108;42.684;23.350;2023-04-28T01:53:53;95584.66;;;7.43;100.00
14067;BME280;7108;42.684;23.350;2023-04-28T01:56:18;95593.25;;;7.37;99.51
14067;BME280;7108;42.684;23.350;2023-04-28T01:58:44;95594.03;;;7.37;100.00
14067;BME280;7108;42.684;23.350;2023-04-28T02:01:09;95586.25;;;7.24;98.72
14067;BME280;7108;42.684;23.350;2023-04-28T02:03:35;95600.06;;;7.34;98.73
14067;BME280;7108;42.684;23.350;2023-04-28T02:06:01;95602.78;;;7.46;99.93
14067;BME280;7108;42.684;23.350;2023-04-28T02:08:26;95593.63;;;7.47;99.71
14067;BME280;7108;42.684;23.350;2023-04-28T02:10:52;95587.19;;;7.28;97.53
14067;BME280;7108;42.684;23.350;2023-04-28T02:13:17;95596.25;;;7.35;98.39
14067;BME280;7108;42.684;23.350;2023-04-28T02:15:43;95610.25;;;7.20;99.25
14067;BME280;7108;42.684;23.350;2023-04-28T02:18:09;95607.81;;;7.27;100.00
14067;BME280;7108;42.684;23.350;2023-04-28T02:20:35;95601.22;;;7.25;100.00
14067;BME280;7108;42.684;23.350;2023-04-28T02:23:00;95608.34;;;7.21;99.21
14067;BME280;7108;42.684;23.350;2023-04-28T02:25:25;95608.94;;;7.06;99.36
14067;BME280;7108;42.684;23.350;2023-04-28T02:27:51;95614.81;;;7.00;100.00
14067;BME280;7108;42.684;23.350;2023-04-28T02:30:16;95606.97;;;6.95;100.00
14067;BME280;7108;42.684;23.350;2023-04-28T02:32:42;95611.00;;;7.01;100.00
14067;BME280;7108;42.684;23.350;2023-04-28T02:35:08;95612.53;;;7.10;100.00
14067;BME280;7108;42.684;23.350;2023-04-28T02:37:33;95623.25;;;7.10;100.00
14067;BME280;7108;42.684;23.350;2023-04-28T02:39:59;95621.09;;;7.24;100.00
14067;BME280;7108;42.684;23.350;2023-04-28T02:42:24;95621.09;;;7.24;100.00
14067;BME280;7108;42.684;23.350;2023-04-28T02:44:52;95624.22;;;7.26;100.00
14067;BME280;7108;42.684;23.350;2023-04-28T02:47:18;95619.72;;;7.18;100.00
14067;BME280;7108;42.684;23.350;2023-04-28T02:49:43;95632.66;;;7.16;99.75
14067;BME280;7108;42.684;23.350;2023-04-28T02:52:09;95622.19;;;7.03;99.41
14067;BME280;7108;42.684;23.350;2023-04-28T02:54:34;95631.69;;;7.20;100.00
14067;BME280;7108;42.684;23.350;2023-04-28T02:57:01;95637.81;;;7.21;99.65
14067;BME280;7108;42.684;23.350;2023-04-28T02:59:29;95631.50;;;7.25;100.00
14067;BME280;7108;42.684;23.350;2023-04-28T03:01:55;95630.09;;;7.40;100.00
14067;BME280;7108;42.684;23.350;2023-04-28T03:04:20;95637.03;;;7.41;100.00
14067;BME280;7108;42.684;23.350;2023-04-28T03:06:46;95643.19;;;7.41;100.00
14067;BME280;7108;42.684;23.350;2023-04-28T03:09:11;95634.28;;;7.49;99.74
14067;BME280;7108;42.684;23.350;2023-04-28T03:11:38;95630.75;;;7.57;98.52
14067;BME280;7108;42.684;23.350;2023-04-28T03:14:03;95644.41;;;7.64;98.66
14067;BME280;7108;42.684;23.350;2023-04-28T03:16:28;95635.19;;;7.53;97.18
14067;BME280;7108;42.684;23.350;2023-04-28T03:18:54;95626.31;;;7.41;98.53
14067;BME280;7108;42.684;23.350;2023-04-28T03:21:20;95641.94;;;7.39;99.30
14067;BME280;7108;42.684;23.350;2023-04-28T03:23:45;95648.28;;;7.34;100.00
14067;BME280;7108;42.684;23.350;2023-04-28T03:26:10;95658.16;;;7.22;99.75
14067;BME280;7108;42.684;23.350;2023-04-28T03:28:36;95659.06;;;7.26;100.00
14067;BME280;7108;42.684;23.350;2023-04-28T03:31:01;95655.28;;;7.27;100.00
14067;BME280;7108;42.684;23.350;2023-04-28T03:33:27;95673.94;;;7.44;100.00
14067;BME280;7108;42.684;23.350;2023-04-28T03:35:53;95665.41;;;7.42;100.00
14067;BME280;7108;42.684;23.350;2023-04-28T03:38:19;95676.19;;;7.33;100.00
14067;BME280;7108;42.684;23.350;2023-04-28T03:40:44;95674.81;;;7.27;100.00
14067;BME280;7108;42.684;23.350;2023-04-28T03:43:10;95682.13;;;7.18;100.00
14067;BME280;7108;42.684;23.350;2023-04-28T03:45:35;95684.97;;;7.22;100.00
14067;BME280;7108;42.684;23.350;2023-04-28T03:48:01;95680.97;;;7.28;99.68
14067;BME280;7108;42.684;23.350;2023-04-28T03:50:26;95688.94;;;7.36;98.18
14067;BME280;7108;42.684;23.350;2023-04-28T03:52:52;95691.31;;;7.38;97.79
14067;BME280;7108;42.684;23.350;2023-04-28T03:55:17;95692.63;;;7.32;98.30
14067;BME280;7108;42.684;23.350;2023-04-28T03:57:43;95700.97;;;7.30;99.04
14067;BME280;7108;42.684;23.350;2023-04-28T04:00:09;95703.06;;;7.25;99.35
14067;BME280;7108;42.684;23.350;2023-04-28T04:02:34;95706.44;;;7.14;98.48
14067;BME280;7108;42.684;23.350;2023-04-28T04:05:00;95703.97;;;7.00;99.62
14067;BME280;7108;42.684;23.350;2023-04-28T04:07:25;95713.28;;;7.03;100.00
14067;BME280;7108;42.684;23.350;2023-04-28T04:09:51;95704.22;;;6.87;98.76
14067;BME280;7108;42.684;23.350;2023-04-28T04:12:17;95715.88;;;6.82;100.00
14067;BME280;7108;42.684;23.350;2023-04-28T04:14:42;95712.38;;;6.90;100.00
14067;BME280;7108;42.684;23.350;2023-04-28T04:17:08;95713.72;;;6.67;99.38
14067;BME280;7108;42.684;23.350;2023-04-28T04:19:33;95717.50;;;6.66;99.99
14067;BME280;7108;42.684;23.350;2023-04-28T04:21:59;95724.34;;;6.55;99.77
14067;BME280;7108;42.684;23.350;2023-04-28T04:24:24;95726.22;;;6.55;100.00
14067;BME280;7108;42.684;23.350;2023-04-28T04:26:50;95735.81;;;6.56;100.00
14067;BME280;7108;42.684;23.350;2023-04-28T04:29:15;95737.09;;;6.58;100.00
14067;BME280;7108;42.684;23.350;2023-04-28T04:31:41;95731.25;;;6.56;100.00
14067;BME280;7108;42.684;23.350;2023-04-28T04:34:06;95734.22;;;6.63;100.00
14067;BME280;7108;42.684;23.350;2023-04-28T04:36:32;95735.09;;;6.84;100.00
14067;BME280;7108;42.684;23.350;2023-04-28T04:38:57;95731.16;;;6.82;99.33
14067;BME280;7108;42.684;23.350;2023-04-28T04:41:24;95747.06;;;6.87;99.53
14067;BME280;7108;42.684;23.350;2023-04-28T04:43:50;95748.81;;;6.83;97.82
14067;BME280;7108;42.684;23.350;2023-04-28T04:46:16;95740.09;;;6.57;98.67
14067;BME280;7108;42.684;23.350;2023-04-28T04:48:41;95747.94;;;6.62;100.00
14067;BME280;7108;42.684;23.350;2023-04-28T04:51:07;95750.13;;;6.60;99.84
14067;BME280;7108;42.684;23.350;2023-04-28T04:53:32;95750.63;;;6.62;100.00
14067;BME280;7108;42.684;23.350;2023-04-28T04:55:58;95762.41;;;6.61;99.15
14067;BME280;7108;42.684;23.350;2023-04-28T04:58:24;95748.88;;;6.57;98.72
14067;BME280;7108;42.684;23.350;2023-04-28T05:00:50;95752.28;;;6.75;100.00
14067;BME280;7108;42.684;23.350;2023-04-28T05:03:15;95767.75;;;6.69;98.64
14067;BME280;7108;42.684;23.350;2023-04-28T05:05:41;95752.28;;;6.75;99.50
14067;BME280;7108;42.684;23.350;2023-04-28T05:08:06;95762.22;;;7.12;99.85
14067;BME280;7108;42.684;23.350;2023-04-28T05:10:32;95767.69;;;7.23;95.46
14067;BME280;7108;42.684;23.350;2023-04-28T05:12:58;95755.84;;;7.33;94.82
14067;BME280;7108;42.684;23.350;2023-04-28T05:15:23;95764.59;;;7.42;94.87
14067;BME280;7108;42.684;23.350;2023-04-28T05:17:49;95758.72;;;7.48;90.77
14067;BME280;7108;42.684;23.350;2023-04-28T05:20:14;95764.81;;;7.57;93.13
14067;BME280;7108;42.684;23.350;2023-04-28T05:22:40;95761.31;;;7.65;91.49
14067;BME280;7108;42.684;23.350;2023-04-28T05:25:06;95763.88;;;7.82;89.31
14067;BME280;7108;42.684;23.350;2023-04-28T05:27:31;95763.22;;;7.85;89.68
14067;BME280;7108;42.684;23.350;2023-04-28T05:29:57;95759.41;;;8.06;90.21
14067;BME280;7108;42.684;23.350;2023-04-28T05:32:24;95759.22;;;7.91;86.05
14067;BME280;7108;42.684;23.350;2023-04-28T05:34:49;95767.66;;;8.01;85.38
14067;BME280;7108;42.684;23.350;2023-04-28T05:37:14;95743.53;;;7.81;86.57
14067;BME280;7108;42.684;23.350;2023-04-28T05:39:40;95754.06;;;7.86;87.97
14067;BME280;7108;42.684;23.350;2023-04-28T05:42:08;95761.06;;;7.79;87.79
14067;BME280;7108;42.684;23.350;2023-04-28T05:44:34;95760.84;;;7.83;85.77
14067;BME280;7108;42.684;23.350;2023-04-28T05:47:00;95757.66;;;7.90;88.62
14067;BME280;7108;42.684;23.350;2023-04-28T05:49:25;95760.59;;;7.97;86.04
14067;BME280;7108;42.684;23.350;2023-04-28T05:51:51;95764.72;;;8.15;85.92
14067;BME280;7108;42.684;23.350;2023-04-28T05:54:16;95757.16;;;8.17;85.08
14067;BME280;7108;42.684;23.350;2023-04-28T05:56:42;95762.81;;;7.95;85.25
14067;BME280;7108;42.684;23.350;2023-04-28T05:59:08;95764.66;;;8.03;87.08
14067;BME280;7108;42.684;23.350;2023-04-28T06:01:34;95758.69;;;7.97;88.14
14067;BME280;7108;42.684;23.350;2023-04-28T06:04:00;95764.91;;;8.30;86.39
14067;BME280;7108;42.684;23.350;2023-04-28T06:06:25;95761.75;;;8.48;83.61
14067;BME280;7108;42.684;23.350;2023-04-28T06:08:52;95759.91;;;8.73;84.85
14067;BME280;7108;42.684;23.350;2023-04-28T06:11:17;95753.47;;;8.98;83.50
14067;BME280;7108;42.684;23.350;2023-04-28T06:13:48;95752.78;;;8.89;79.85
14067;BME280;7108;42.684;23.350;2023-04-28T06:16:15;95750.72;;;8.62;78.48
14067;BME280;7108;42.684;23.350;2023-04-28T06:18:42;95753.44;;;8.86;83.84
14067;BME280;7108;42.684;23.350;2023-04-28T06:21:07;95759.53;;;9.18;83.30
14067;BME280;7108;42.684;23.350;2023-04-28T06:23:32;95759.44;;;9.27;80.04
14067;BME280;7108;42.684;23.350;2023-04-28T06:25:58;95744.88;;;9.28;80.43
14067;BME280;7108;42.684;23.350;2023-04-28T06:28:23;95759.97;;;9.44;77.12
14067;BME280;7108;42.684;23.350;2023-04-28T06:30:49;95754.94;;;9.31;77.72
14067;BME280;7108;42.684;23.350;2023-04-28T06:33:14;95755.59;;;9.40;74.23
14067;BME280;7108;42.684;23.350;2023-04-28T06:35:40;95750.75;;;9.57;75.23
14067;BME280;7108;42.684;23.350;2023-04-28T06:38:05;95748.09;;;9.33;71.63
14067;BME280;7108;42.684;23.350;2023-04-28T06:40:31;95749.44;;;9.39;73.38
14067;BME280;7108;42.684;23.350;2023-04-28T06:42:57;95754.25;;;9.58;72.49
14067;BME280;7108;42.684;23.350;2023-04-28T06:45:22;95753.03;;;9.55;71.52
14067;BME280;7108;42.684;23.350;2023-04-28T06:47:48;95742.16;;;9.52;73.41
14067;BME280;7108;42.684;23.350;2023-04-28T06:50:13;95741.03;;;9.53;71.88
14067;BME280;7108;42.684;23.350;2023-04-28T06:52:39;95746.53;;;9.56;72.35
14067;BME280;7108;42.684;23.350;2023-04-28T06:55:06;95752.34;;;9.70;73.38
14067;BME280;7108;42.684;23.350;2023-04-28T06:57:33;95750.28;;;9.91;74.02
14067;BME280;7108;42.684;23.350;2023-04-28T06:59:58;95750.50;;;9.86;73.61
14067;BME280;7108;42.684;23.350;2023-04-28T07:02:24;95752.63;;;10.04;71.50
14067;BME280;7108;42.684;23.350;2023-04-28T07:04:50;95746.44;;;10.04;70.82
14067;BME280;7108;42.684;23.350;2023-04-28T07:07:16;95750.81;;;10.08;70.26
14067;BME280;7108;42.684;23.350;2023-04-28T07:09:41;95744.69;;;10.23;67.05
14067;BME280;7108;42.684;23.350;2023-04-28T07:12:07;95745.78;;;10.07;66.38
14067;BME280;7108;42.684;23.350;2023-04-28T07:14:32;95744.84;;;10.15;66.25
14067;BME280;7108;42.684;23.350;2023-04-28T07:16:58;95739.34;;;10.11;64.43
14067;BME280;7108;42.684;23.350;2023-04-28T07:19:23;95738.19;;;10.24;66.91
14067;BME280;7108;42.684;23.350;2023-04-28T07:21:49;95754.00;;;10.53;75.39
14067;BME280;7108;42.684;23.350;2023-04-28T07:24:14;95749.69;;;10.37;67.12
14067;BME280;7108;42.684;23.350;2023-04-28T07:26:40;95736.38;;;10.28;61.48
14067;BME280;7108;42.684;23.350;2023-04-28T07:29:05;95742.00;;;10.23;61.02
14067;BME280;7108;42.684;23.350;2023-04-28T07:31:33;95742.75;;;10.36;57.63
14067;BME280;7108;42.684;23.350;2023-04-28T07:33:58;95734.03;;;10.27;58.66
14067;BME280;7108;42.684;23.350;2023-04-28T07:36:24;95729.53;;;10.31;59.12
14067;BME280;7108;42.684;23.350;2023-04-28T07:38:50;95729.59;;;10.46;57.85
14067;BME280;7108;42.684;23.350;2023-04-28T07:41:16;95734.03;;;10.27;57.94
14067;BME280;7108;42.684;23.350;2023-04-28T07:43:42;95732.06;;;10.39;58.32
14067;BME280;7108;42.684;23.350;2023-04-28T07:46:08;95744.66;;;10.62;59.77
14067;BME280;7108;42.684;23.350;2023-04-28T07:48:34;95737.13;;;10.83;59.49
14067;BME280;7108;42.684;23.350;2023-04-28T07:51:00;95740.44;;;11.08;58.60
14067;BME280;7108;42.684;23.350;2023-04-28T07:53:26;95739.16;;;11.17;56.58
14067;BME280;7108;42.684;23.350;2023-04-28T07:55:51;95734.53;;;11.33;59.29
14067;BME280;7108;42.684;23.350;2023-04-28T07:58:17;95724.06;;;11.47;56.10
14067;BME280;7108;42.684;23.350;2023-04-28T08:00:42;95721.28;;;11.59;52.20
14067;BME280;7108;42.684;23.350;2023-04-28T08:03:08;95730.66;;;11.65;51.39
14067;BME280;7108;42.684;23.350;2023-04-28T08:05:33;95726.31;;;11.45;51.17
14067;BME280;7108;42.684;23.350;2023-04-28T08:07:59;95729.22;;;11.52;50.45
14067;BME280;7108;42.684;23.350;2023-04-28T08:10:24;95731.53;;;11.69;52.53
14067;BME280;7108;42.684;23.350;2023-04-28T08:12:51;95733.06;;;11.85;50.95
14067;BME280;7108;42.684;23.350;2023-04-28T08:15:19;95729.88;;;11.98;50.55
14067;BME280;7108;42.684;23.350;2023-04-28T08:17:45;95723.16;;;11.74;47.86
14067;BME280;7108;42.684;23.350;2023-04-28T08:20:11;95717.81;;;11.43;48.33
14067;BME280;7108;42.684;23.350;2023-04-28T08:22:39;95728.41;;;11.67;49.58
14067;BME280;7108;42.684;23.350;2023-04-28T08:25:05;95721.81;;;11.83;50.07
14067;BME280;7108;42.684;23.350;2023-04-28T08:27:30;95726.06;;;11.99;48.72
14067;BME280;7108;42.684;23.350;2023-04-28T08:29:56;95718.16;;;12.10;49.94
14067;BME280;7108;42.684;23.350;2023-04-28T08:32:21;95723.16;;;12.27;46.76
14067;BME280;7108;42.684;23.350;2023-04-28T08:34:47;95716.47;;;12.21;47.25
14067;BME280;7108;42.684;23.350;2023-04-28T08:37:16;95718.31;;;12.36;48.31
14067;BME280;7108;42.684;23.350;2023-04-28T08:39:41;95713.19;;;12.49;46.99
14067;BME280;7108;42.684;23.350;2023-04-28T08:42:07;95722.78;;;12.66;45.96
14067;BME280;7108;42.684;23.350;2023-04-28T08:44:38;95714.09;;;12.57;46.00
14067;BME280;7108;42.684;23.350;2023-04-28T08:47:11;95714.59;;;12.62;46.69
14067;BME280;7108;42.684;23.350;2023-04-28T08:49:37;95705.41;;;12.67;45.47
14067;BME280;7108;42.684;23.350;2023-04-28T08:52:12;95699.03;;;12.78;47.03
14067;BME280;7108;42.684;23.350;2023-04-28T08:54:41;95708.56;;;12.91;47.35
14067;BME280;7108;42.684;23.350;2023-04-28T08:57:09;95705.28;;;13.01;45.47
14067;BME280;7108;42.684;23.350;2023-04-28T08:59:37;95700.88;;;12.93;45.00
14067;BME280;7108;42.684;23.350;2023-04-28T09:02:04;95699.97;;;13.08;45.59
14067;BME280;7108;42.684;23.350;2023-04-28T09:04:29;95690.78;;;13.12;45.86
14067;BME280;7108;42.684;23.350;2023-04-28T09:06:55;95680.09;;;13.19;44.58
14067;BME280;7108;42.684;23.350;2023-04-28T09:09:25;95693.22;;;13.43;45.91
14067;BME280;7108;42.684;23.350;2023-04-28T09:12:01;95692.72;;;13.38;43.32
14067;BME280;7108;42.684;23.350;2023-04-28T09:14:32;95682.66;;;13.12;44.96
14067;BME280;7108;42.684;23.350;2023-04-28T09:16:58;95683.59;;;12.98;42.90
14067;BME280;7108;42.684;23.350;2023-04-28T09:19:32;95680.94;;;13.01;49.05
14067;BME280;7108;42.684;23.350;2023-04-28T09:21:58;95665.31;;;13.13;46.37
14067;BME280;7108;42.684;23.350;2023-04-28T09:24:29;95675.56;;;13.27;47.46
14067;BME280;7108;42.684;23.350;2023-04-28T09:26:56;95678.72;;;13.32;44.90
14067;BME280;7108;42.684;23.350;2023-04-28T09:29:22;95662.16;;;13.11;44.07
14067;BME280;7108;42.684;23.350;2023-04-28T09:31:47;95653.50;;;13.25;44.32
14067;BME280;7108;42.684;23.350;2023-04-28T09:34:13;95659.59;;;13.44;43.38
14067;BME280;7108;42.684;23.350;2023-04-28T09:36:39;95660.09;;;13.27;42.57
14067;BME280;7108;42.684;23.350;2023-04-28T09:39:05;95663.63;;;13.31;45.52
14067;BME280;7108;42.684;23.350;2023-04-28T09:41:37;95661.88;;;12.94;42.45
14067;BME280;7108;42.684;23.350;2023-04-28T09:44:16;95656.50;;;13.20;46.06
14067;BME280;7108;42.684;23.350;2023-04-28T09:46:53;95641.78;;;13.17;43.81
14067;BME280;7108;42.684;23.350;2023-04-28T09:49:18;95646.44;;;13.43;45.73
14067;BME280;7108;42.684;23.350;2023-04-28T09:51:44;95646.31;;;13.62;42.86
14067;BME280;7108;42.684;23.350;2023-04-28T09:54:11;95638.03;;;13.80;44.66
14067;BME280;7108;42.684;23.350;2023-04-28T09:56:40;95641.34;;;13.96;40.74
14067;BME280;7108;42.684;23.350;2023-04-28T09:59:07;95634.13;;;13.78;42.36
14067;BME280;7108;42.684;23.350;2023-04-28T10:01:36;95633.59;;;13.66;39.00
14067;BME280;7108;42.684;23.350;2023-04-28T10:04:07;95639.22;;;13.83;40.67
14067;BME280;7108;42.684;23.350;2023-04-28T10:06:35;95631.91;;;13.83;38.92
14067;BME280;7108;42.684;23.350;2023-04-28T10:09:04;95627.41;;;13.65;39.23
14067;BME280;7108;42.684;23.350;2023-04-28T10:11:30;95620.03;;;13.95;38.91
14067;BME280;7108;42.684;23.350;2023-04-28T10:13:57;95622.78;;;14.28;38.35
14067;BME280;7108;42.684;23.350;2023-04-28T10:16:23;95618.28;;;14.42;40.21
14067;BME280;7108;42.684;23.350;2023-04-28T10:18:51;95602.69;;;14.68;38.86
14067;BME280;7108;42.684;23.350;2023-04-28T10:21:21;95608.66;;;14.91;38.92
14067;BME280;7108;42.684;23.350;2023-04-28T10:26:57;95607.47;;;14.85;38.20
14067;BME280;7108;42.684;23.350;2023-04-28T10:29:26;95602.53;;;15.01;38.74
14067;BME280;7108;42.684;23.350;2023-04-28T10:34:39;95602.41;;;15.30;36.74
14067;BME280;7108;42.684;23.350;2023-04-28T10:37:04;95596.47;;;15.18;35.90
14067;BME280;7108;42.684;23.350;2023-04-28T10:39:30;95598.09;;;15.22;37.19
14067;BME280;7108;42.684;23.350;2023-04-28T10:41:55;95597.97;;;15.08;35.12
14067;BME280;7108;42.684;23.350;2023-04-28T10:47:03;95582.63;;;15.26;39.54
14067;BME280;7108;42.684;23.350;2023-04-28T10:55:27;95580.34;;;15.32;37.25
14067;BME280;7108;42.684;23.350;2023-04-28T11:00:48;95564.69;;;15.82;38.07
14067;BME280;7108;42.684;23.350;2023-04-28T11:06:33;95578.19;;;15.62;34.70
14067;BME280;7108;42.684;23.350;2023-04-28T11:16:58;95559.66;;;15.91;38.18
14067;BME280;7108;42.684;23.350;2023-04-28T11:19:36;95556.16;;;15.84;33.24
14067;BME280;7108;42.684;23.350;2023-04-28T11:22:05;95541.38;;;15.81;34.45
14067;BME280;7108;42.684;23.350;2023-04-28T11:24:36;95549.50;;;15.68;32.05
14067;BME280;7108;42.684;23.350;2023-04-28T11:27:02;95541.16;;;15.33;33.35
14067;BME280;7108;42.684;23.350;2023-04-28T11:31:56;95535.22;;;15.95;34.47
14067;BME280;7108;42.684;23.350;2023-04-28T11:34:22;95533.47;;;15.42;34.20
14067;BME280;7108;42.684;23.350;2023-04-28T11:36:52;95538.69;;;15.85;35.99
14067;BME280;7108;42.684;23.350;2023-04-28T11:39:24;95533.72;;;16.11;37.31
14067;BME280;7108;42.684;23.350;2023-04-28T11:41:52;95521.34;;;16.31;38.30
14067;BME280;7108;42.684;23.350;2023-04-28T11:44:20;95522.19;;;16.56;35.62
14067;BME280;7108;42.684;23.350;2023-04-28T11:46:50;95517.13;;;16.75;35.49
14067;BME280;7108;42.684;23.350;2023-04-28T11:49:23;95507.41;;;16.74;33.56
14067;BME280;7108;42.684;23.350;2023-04-28T11:51:49;95507.78;;;16.76;36.30
14067;BME280;7108;42.684;23.350;2023-04-28T11:54:23;95502.31;;;16.94;33.69
14067;BME280;7108;42.684;23.350;2023-04-28T11:56:49;95509.72;;;16.69;32.92
14067;BME280;7108;42.684;23.350;2023-04-28T11:59:15;95506.25;;;16.47;32.68
14067;BME280;7108;42.684;23.350;2023-04-28T12:01:45;95512.44;;;16.69;35.18
14067;BME280;7108;42.684;23.350;2023-04-28T12:04:11;95501.59;;;16.79;33.11
14067;BME280;7108;42.684;23.350;2023-04-28T12:06:37;95508.16;;;16.96;34.07
14067;BME280;7108;42.684;23.350;2023-04-28T12:09:17;95501.16;;;17.05;33.52
14067;BME280;7108;42.684;23.350;2023-04-28T12:11:57;95498.03;;;17.13;33.65
14067;BME280;7108;42.684;23.350;2023-04-28T12:14:25;95489.84;;;17.20;34.34
14067;BME280;7108;42.684;23.350;2023-04-28T12:16:51;95496.47;;;17.09;33.75
14067;BME280;7108;42.684;23.350;2023-04-28T12:19:17;95487.56;;;16.70;34.38
14067;BME280;7108;42.684;23.350;2023-04-28T12:22:05;95489.84;;;16.16;34.64
14067;BME280;7108;42.684;23.350;2023-04-28T12:24:33;95488.63;;;15.86;36.37
14067;BME280;7108;42.684;23.350;2023-04-28T12:27:19;95482.03;;;15.97;35.37
14067;BME280;7108;42.684;23.350;2023-04-28T12:29:50;95473.13;;;16.11;36.25
14067;BME280;7108;42.684;23.350;2023-04-28T12:32:16;95466.97;;;16.31;36.82
14067;BME280;7108;42.684;23.350;2023-04-28T12:34:44;95477.47;;;16.40;36.02
14067;BME280;7108;42.684;23.350;2023-04-28T12:37:10;95464.22;;;16.24;35.73
14067;BME280;7108;42.684;23.350;2023-04-28T12:39:38;95468.53;;;16.39;35.06
14067;BME280;7108;42.684;23.350;2023-04-28T12:42:04;95466.59;;;16.46;36.86
14067;BME280;7108;42.684;23.350;2023-04-28T12:44:37;95449.09;;;16.54;37.00
14067;BME280;7108;42.684;23.350;2023-04-28T12:47:07;95454.53;;;16.61;35.14
14067;BME280;7108;42.684;23.350;2023-04-28T12:49:36;95468.53;;;16.67;36.19
14067;BME280;7108;42.684;23.350;2023-04-28T12:52:05;95463.47;;;16.69;34.92
14067;BME280;7108;42.684;23.350;2023-04-28T12:54:31;95448.72;;;16.56;36.34
14067;BME280;7108;42.684;23.350;2023-04-28T12:56:56;95443.66;;;16.65;37.16
14067;BME280;7108;42.684;23.350;2023-04-28T12:59:22;95437.84;;;16.32;34.84
14067;BME280;7108;42.684;23.350;2023-04-28T13:01:48;95447.16;;;16.27;34.58
14067;BME280;7108;42.684;23.350;2023-04-28T13:04:15;95440.56;;;16.28;35.57
14067;BME280;7108;42.684;23.350;2023-04-28T13:06:41;95435.44;;;16.02;34.77
14067;BME280;7108;42.684;23.350;2023-04-28T13:09:11;95429.22;;;15.91;35.35
14067;BME280;7108;42.684;23.350;2023-04-28T13:11:38;95426.16;;;16.07;36.00
14067;BME280;7108;42.684;23.350;2023-04-28T13:14:06;95438.19;;;16.20;34.95
14067;BME280;7108;42.684;23.350;2023-04-28T13:16:32;95433.53;;;16.17;35.16
14067;BME280;7108;42.684;23.350;2023-04-28T13:18:59;95433.53;;;16.20;35.50
14067;BME280;7108;42.684;23.350;2023-04-28T13:21:25;95424.59;;;16.23;35.46
14067;BME280;7108;42.684;23.350;2023-04-28T13:23:53;95433.16;;;16.29;36.63
14067;BME280;7108;42.684;23.350;2023-04-28T13:26:19;95431.63;;;16.42;36.75
14067;BME280;7108;42.684;23.350;2023-04-28T13:28:46;95425.41;;;16.48;35.31
14067;BME280;7108;42.684;23.350;2023-04-28T13:31:12;95425.00;;;16.36;34.65
14067;BME280;7108;42.684;23.350;2023-04-28T13:33:41;95433.16;;;16.25;35.25